Time;durP1;ratioP1;P1;durP2;ratioP2;P2;SDS_P1;SDS_P2;PMS_P1;PMS_P2;Temp;Humidity;BMP_temperature;BMP_pressure;BME280_temperature;BME280_humidity;BME280_pressure;Samples;Min_cycle;Max_cycle;Signal;HPM_P1;HPM_P2
2021/06/20 00:26:45;;;;;;;5.10;3.60;;;;;;;21.21;60.86;100464.89;126692;1109;64910;-92
2021/06/20 00:39:04;;;;;;;4.58;3.70;;;;;;;21.12;61.08;100451.86;126811;1109;64961;-91
2021/06/20 00:48:22;;;;;;;3.60;3.30;;;;;;;21.20;61.41;100451.31;126807;1108;65549;-92
2021/06/20 00:57:23;;;;;;;3.73;3.23;;;;;;;21.24;60.74;100435.72;126789;1108;65203;-91
2021/06/20 01:13:23;;;;;;;6.97;4.10;;;;;;;21.13;60.46;100421.66;126814;1109;65063;-91
2021/06/20 01:16:35;;;;;;;3.90;3.60;;;;;;;21.09;60.88;100421.92;126819;1109;65362;-91
2021/06/20 01:25:37;;;;;;;4.10;3.67;;;;;;;21.15;61.17;100419.09;126798;1108;65068;-92
2021/06/20 01:37:35;;;;;;;4.37;3.87;;;;;;;21.23;60.94;100411.67;126782;1107;66049;-92
2021/06/20 01:43:29;;;;;;;4.40;3.93;;;;;;;21.20;60.90;100412.70;108629;1109;64880;-93
2021/06/20 01:52:27;;;;;;;4.70;4.00;;;;;;;21.13;60.71;100416.80;126809;1107;66560;-93
2021/06/20 01:55:47;;;;;;;5.80;4.00;;;;;;;21.11;60.66;100412.95;106828;1107;64493;-91
2021/06/20 02:04:51;;;;;;;3.87;3.57;;;;;;;21.15;61.03;100422.69;124799;1108;65717;-93
2021/06/20 02:10:47;;;;;;;5.67;3.90;;;;;;;21.22;60.86;100421.39;125705;1108;65005;-90
2021/06/20 02:20:25;;;;;;;4.20;3.80;;;;;;;21.21;60.74;100425.48;106379;1108;64730;-90
2021/06/20 02:26:38;;;;;;;4.63;4.10;;;;;;;21.19;60.86;100425.23;126849;1108;65854;-91
2021/06/20 02:35:45;;;;;;;5.57;3.90;;;;;;;21.10;60.58;100419.86;126882;1109;66541;-91
2021/06/20 02:47:35;;;;;;;5.00;3.60;;;;;;;21.17;60.94;100408.09;126890;1109;65346;-91
2021/06/20 02:53:25;;;;;;;4.37;3.30;;;;;;;21.21;60.53;100408.60;126879;1109;65492;-92
2021/06/20 02:59:32;;;;;;;5.67;3.93;;;;;;;21.21;60.70;100408.60;126874;1109;65613;-93
2021/06/20 03:05:24;;;;;;;4.67;4.00;;;;;;;21.18;60.31;100418.07;126845;1109;67177;-91
2021/06/20 03:17:09;;;;;;;4.50;4.10;;;;;;;21.07;60.39;100410.41;126485;1108;65384;31
2021/06/20 03:20:27;;;;;;;4.30;3.60;;;;;;;21.08;60.64;100417.58;126833;1108;66615;31
2021/06/20 03:33:25;;;;;;;4.70;3.75;;;;;;;21.19;61.03;100427.30;106053;1108;66504;-92
2021/06/20 03:39:34;;;;;;;9.33;3.90;;;;;;;21.21;60.66;100439.56;115054;1109;65613;-93
2021/06/20 03:42:58;;;;;;;4.77;4.03;;;;;;;21.20;60.48;100434.42;126761;1108;64955;-93
2021/06/20 03:55:20;;;;;;;4.70;4.30;;;;;;;21.09;60.44;100435.99;126824;1109;65503;-92
2021/06/20 04:03:58;;;;;;;4.90;3.95;;;;;;;21.10;60.86;100422.67;106315;1108;66588;-91
2021/06/20 04:09:56;;;;;;;4.75;3.85;;;;;;;21.15;60.59;100421.91;121004;1108;65051;-91
2021/06/20 04:16:03;;;;;;;4.17;3.70;;;;;;;21.20;60.81;100409.10;126804;1108;64836;-92
2021/06/20 04:21:51;;;;;;;6.93;4.10;;;;;;;21.19;60.19;100405.53;126786;1108;65703;-93
2021/06/20 04:27:59;;;;;;;5.10;4.30;;;;;;;21.15;60.58;100391.73;126750;1107;65417;-92
2021/06/20 04:40:08;;;;;;;7.50;4.10;;;;;;;21.09;60.56;100388.16;126804;1109;64918;-92
2021/06/20 04:55:48;;;;;;;5.87;3.90;;;;;;;21.21;60.84;100386.09;126869;1109;65445;-92
2021/06/20 04:59:06;;;;;;;6.87;4.57;;;;;;;21.22;60.53;100392.47;126785;1108;66581;-90
2021/06/20 05:04:58;;;;;;;7.00;4.45;;;;;;;21.19;60.57;100402.72;126832;1109;65379;-92
2021/06/20 05:14:00;;;;;;;5.80;4.27;;;;;;;21.13;60.54;100418.84;126812;1107;66381;-91
2021/06/20 05:17:12;;;;;;;4.57;4.17;;;;;;;21.10;60.29;100417.83;126819;1108;65441;-93
2021/06/20 05:26:21;;;;;;;5.90;4.17;;;;;;;21.17;60.75;100403.25;126557;1108;65354;-92
2021/06/20 05:46:18;;;;;;;5.27;4.17;;;;;;;21.23;60.52;100389.16;106805;1109;64482;-91
2021/06/20 05:53:02;;;;;;;4.20;3.80;;;;;;;21.16;60.19;100384.83;105965;1108;66970;-92
2021/06/20 06:05:32;;;;;;;5.90;3.70;;;;;;;21.15;60.50;100369.22;126814;1106;66757;-91
2021/06/20 06:11:37;;;;;;;4.83;4.10;;;;;;;21.23;60.64;100374.30;126829;1108;66340;-93
2021/06/20 06:39:33;;;;;;;4.10;3.70;;;;;;;21.15;60.22;100363.59;126784;1108;65055;-92
2021/06/20 06:48:37;;;;;;;6.43;3.90;;;;;;;21.22;60.79;100369.95;126220;1109;64920;-90
2021/06/20 07:03:40;;;;;;;4.30;3.90;;;;;;;21.33;60.38;100356.61;126300;1109;65710;-92
2021/06/20 07:09:23;;;;;;;5.90;3.70;;;;;;;21.31;60.23;100366.88;126484;1109;65413;-93
2021/06/20 07:15:30;;;;;;;;;;;;;;;;;;;;;
2021/06/20 07:24:38;;;;;;;3.50;3.18;;;;;;;21.26;60.94;100374.05;117949;1109;65330;-91
2021/06/20 07:33:50;;;;;;;4.40;3.73;;;;;;;21.36;60.97;100380.16;126400;1110;65395;-92
2021/06/20 07:40:10;;;;;;;4.40;3.70;;;;;;;21.38;60.50;100380.41;104975;1116;64382;-92
2021/06/20 07:49:06;;;;;;;4.13;3.73;;;;;;;21.33;60.33;100373.50;118516;1110;65078;-92
2021/06/20 07:55:07;;;;;;;5.70;4.00;;;;;;;21.27;60.32;100360.73;126855;1109;64830;31
2021/06/20 08:04:20;;;;;;;5.10;3.50;;;;;;;21.32;60.81;100359.95;126816;1107;65423;-91
2021/06/20 08:07:33;;;;;;;5.67;3.80;;;;;;;21.36;60.91;100356.86;126837;1108;64883;-92
2021/06/20 08:26:22;;;;;;;4.60;4.20;;;;;;;21.35;60.40;100358.14;125779;1109;65247;-90
2021/06/20 08:35:00;;;;;;;4.53;3.60;;;;;;;21.31;60.75;100358.42;126814;1108;65034;-93
2021/06/20 08:59:17;;;;;;;3.93;3.63;;;;;;;21.41;60.71;100354.05;126797;1108;66461;-90
2021/06/20 09:24:49;;;;;;;4.20;3.80;;;;;;;21.44;60.94;100375.52;126594;1116;64863;-93
2021/06/20 09:34:28;;;;;;;4.33;3.80;;;;;;;21.45;60.90;100382.67;120519;1108;64975;-92
2021/06/20 09:43:51;;;;;;;4.57;4.17;;;;;;;21.38;61.02;100376.82;126849;1108;65426;-91
2021/06/20 09:49:49;;;;;;;4.17;3.77;;;;;;;21.40;60.94;100374.26;125135;1107;65500;-93
2021/06/20 10:02:20;;;;;;;4.30;3.90;;;;;;;21.48;61.33;100376.02;126006;1108;65556;-93
2021/06/20 10:14:21;;;;;;;4.50;4.10;;;;;;;21.43;60.92;100365.53;126839;1108;65470;-91
2021/06/20 10:26:58;;;;;;;4.55;4.15;;;;;;;21.40;61.32;100352.52;126760;1109;65259;-92
2021/06/20 10:51:04;;;;;;;4.23;3.83;;;;;;;21.47;60.95;100332.25;126885;1109;65452;-92
2021/06/20 11:03:08;;;;;;;4.53;3.80;;;;;;;21.44;60.92;100316.39;126766;1109;66342;-92
2021/06/20 11:12:51;;;;;;;4.38;3.98;;;;;;;21.53;61.21;100320.20;125673;1109;65294;-90
2021/06/20 11:25:29;;;;;;;4.87;4.43;;;;;;;21.48;60.89;100345.05;126795;1108;65012;-92
2021/06/20 11:40:52;;;;;;;4.53;4.13;;;;;;;21.46;61.55;100338.41;126854;1108;64997;-91
2021/06/20 11:44:25;;;;;;;4.60;4.20;;;;;;;21.50;61.32;100343.77;126490;1109;65092;-90
2021/06/20 11:53:45;;;;;;;5.77;4.77;;;;;;;21.52;61.46;100316.64;123055;1109;65671;-91
2021/06/20 12:03:14;;;;;;;8.10;5.10;;;;;;;21.45;61.48;100301.03;126891;1109;64850;-91
2021/06/20 12:12:12;;;;;;;5.17;4.07;;;;;;;21.45;61.36;100298.22;126867;1109;65005;-92
2021/06/20 12:21:46;;;;;;;7.20;4.83;;;;;;;21.53;61.56;100290.02;126829;1109;65525;-92
2021/06/20 12:27:27;;;;;;;7.25;5.05;;;;;;;21.55;61.62;100289.48;126815;1108;65111;-90
2021/06/20 12:33:14;;;;;;;6.00;4.83;;;;;;;21.52;61.74;100288.48;126823;1109;65108;31
2021/06/20 12:42:12;;;;;;;4.73;4.33;;;;;;;21.53;61.95;100270.30;126854;1109;66114;31
2021/06/20 12:54:05;;;;;;;5.90;4.60;;;;;;;21.66;61.94;100271.78;126870;1109;64900;-87
2021/06/20 13:15:14;;;;;;;6.13;4.70;;;;;;;21.66;61.85;100266.94;126840;1108;64907;-91
2021/06/20 13:23:58;;;;;;;5.70;5.10;;;;;;;21.72;61.73;100269.70;126849;1113;65093;-93
2021/06/20 13:30:38;;;;;;;5.83;5.20;;;;;;;21.69;61.95;100268.67;107226;1108;66786;-91
2021/06/20 13:42:38;;;;;;;5.60;4.70;;;;;;;21.68;62.28;100278.41;126764;1109;66099;-91
2021/06/20 13:48:44;;;;;;;5.23;4.70;;;;;;;21.70;62.25;100267.39;126803;1107;65668;-91
2021/06/20 13:54:23;;;;;;;4.87;4.47;;;;;;;21.72;61.85;100262.00;126845;1108;65370;-92
2021/06/20 14:00:40;;;;;;;5.47;4.97;;;;;;;21.71;61.88;100262.55;126783;1108;65533;-91
2021/06/20 14:06:34;;;;;;;6.27;4.90;;;;;;;21.65;61.65;100264.62;126857;1108;65620;-91
2021/06/20 14:18:50;;;;;;;5.20;4.50;;;;;;;21.70;62.30;100258.95;126835;1108;65914;-90
2021/06/20 14:36:27;;;;;;;5.17;4.67;;;;;;;21.66;62.17;100261.30;126778;1108;65635;-90
2021/06/20 14:57:50;;;;;;;5.00;4.50;;;;;;;21.72;62.33;100262.00;126793;1108;64889;-91
2021/06/20 15:03:58;;;;;;;5.37;4.87;;;;;;;21.67;62.33;100254.35;114640;1106;66831;-91
2021/06/20 15:12:44;;;;;;;5.10;4.60;;;;;;;21.68;62.18;100252.31;126803;1107;64981;-91
2021/06/20 15:22:35;;;;;;;5.53;4.90;;;;;;;21.71;62.51;100248.46;121014;1108;65492;-92
2021/06/20 15:31:35;;;;;;;5.30;4.80;;;;;;;21.69;62.28;100265.86;126844;1109;64817;-91
2021/06/20 15:37:49;;;;;;;5.33;4.83;;;;;;;21.62;61.96;100257.98;126193;1108;66755;-92
2021/06/20 15:57:17;;;;;;;5.20;4.70;;;;;;;21.72;62.47;100272.52;126890;1107;64763;-90
2021/06/20 16:00:32;;;;;;;5.67;4.93;;;;;;;21.70;62.23;100261.01;108807;1107;64583;-92
2021/06/20 16:18:32;;;;;;;4.90;4.40;;;;;;;21.65;62.57;100254.14;126512;1109;65526;-92
2021/06/20 16:30:48;;;;;;;5.93;5.07;;;;;;;21.69;62.21;100260.23;126812;1109;65614;-93
2021/06/20 16:51:40;;;;;;;6.00;4.97;;;;;;;21.66;62.72;100247.22;126871;1108;65351;-92
2021/06/20 17:04:27;;;;;;;6.23;5.03;;;;;;;21.67;62.53;100248.72;112809;1109;64871;-92
2021/06/20 17:20:07;;;;;;;6.07;4.93;;;;;;;21.65;62.78;100256.17;126447;1109;64910;-93
2021/06/20 17:26:17;;;;;;;6.27;5.67;;;;;;;21.68;62.47;100247.44;125005;1108;65332;-90
2021/06/20 17:38:08;;;;;;;7.73;6.93;;;;;;;21.65;62.38;100253.36;126839;1103;65479;-92
2021/06/20 18:14:04;;;;;;;11.53;7.90;;;;;;;21.59;62.40;100256.19;106433;1108;64413;-88
2021/06/20 18:28:58;;;;;;;8.70;7.80;;;;;;;21.67;62.84;100271.25;125183;1106;64795;-90
2021/06/20 18:41:18;;;;;;;7.37;6.40;;;;;;;21.59;62.42;100273.83;125115;1109;66612;-90
2021/06/20 18:47:20;;;;;;;8.93;7.38;;;;;;;21.59;62.96;100279.46;126829;1109;64992;-91
2021/06/20 18:56:50;;;;;;;9.40;7.30;;;;;;;21.66;62.63;100283.83;126661;1108;64910;-91
2021/06/20 19:06:07;;;;;;;9.43;7.60;;;;;;;21.64;62.86;100294.84;110852;1109;65025;-93
2021/06/20 19:46:01;;;;;;;8.47;7.03;;;;;;;21.64;63.22;100320.19;125355;1108;65040;-92
2021/06/20 19:49:15;;;;;;;8.60;7.67;;;;;;;21.66;62.71;100319.66;108206;1113;65001;-91
2021/06/20 19:55:38;;;;;;;8.77;7.63;;;;;;;21.66;63.17;100317.63;106919;1108;64363;-89
2021/06/20 20:01:33;;;;;;;8.30;7.50;;;;;;;21.63;62.62;100310.21;126852;1109;64979;31
2021/06/20 20:17:01;;;;;;;7.90;7.10;;;;;;;21.65;63.09;100304.83;107188;1106;64786;-90
2021/06/20 20:27:05;;;;;;;7.93;7.13;;;;;;;21.65;62.94;100310.45;126715;1108;65118;-92
2021/06/20 20:36:19;;;;;;;10.03;7.43;;;;;;;21.60;62.76;100314.03;122898;1109;65059;-91
2021/06/20 20:50:49;;;;;;;8.40;7.53;;;;;;;21.67;63.04;100307.11;126863;1109;65307;-92
2021/06/20 21:02:55;;;;;;;11.03;7.90;;;;;;;21.57;62.84;100298.92;107048;1116;65735;-91
2021/06/20 21:21:32;;;;;;;11.50;8.40;;;;;;;21.63;63.32;100301.77;120311;1103;65121;-91
2021/06/20 21:27:46;;;;;;;8.50;7.60;;;;;;;21.59;63.37;100296.36;126932;1109;64544;-91
2021/06/20 21:39:42;;;;;;;8.10;7.30;;;;;;;21.59;63.44;100292.79;117427;1109;64834;-93
2021/06/20 22:01:11;;;;;;;7.47;6.40;;;;;;;21.56;62.85;100285.38;126830;1108;65724;-90
2021/06/20 22:19:59;;;;;;;8.10;6.57;;;;;;;21.60;62.86;100268.98;123539;1108;64995;-90
2021/06/20 22:26:17;;;;;;;7.20;6.50;;;;;;;21.54;62.98;100268.23;126800;1108;64998;-91
2021/06/20 22:38:27;;;;;;;7.23;6.10;;;;;;;21.57;63.42;100256.69;126782;1109;65107;-92
2021/06/20 22:44:45;;;;;;;7.60;6.55;;;;;;;21.58;62.84;100252.59;126811;1108;65452;-91
2021/06/20 22:57:30;;;;;;;6.70;5.75;;;;;;;21.50;62.62;100245.22;126831;1109;65026;-92
2021/06/20 23:12:56;;;;;;;6.73;5.87;;;;;;;21.56;63.00;100257.22;126045;1107;65309;-88
2021/06/20 23:24:50;;;;;;;6.20;5.60;;;;;;;21.51;63.03;100250.34;126837;1107;64985;31
2021/06/20 23:31:00;;;;;;;6.17;5.57;;;;;;;21.47;62.72;100253.42;126846;1109;65157;-90
2021/06/20 23:37:21;;;;;;;6.23;5.57;;;;;;;21.52;63.03;100251.09;126626;1108;66553;-92
2021/06/20 23:43:32;;;;;;;8.57;5.93;;;;;;;21.55;62.80;100250.81;126828;1108;64932;-91
2021/06/20 23:52:56;;;;;;;7.03;5.93;;;;;;;21.54;62.58;100242.90;126016;1108;64953;-93
2021/06/20 23:56:08;;;;;;;7.00;5.60;;;;;;;21.51;62.95;100235.48;126791;1107;65027;-92
